createdAt,value
2022-08-28T00:01:58.214Z,23.18
2022-08-28T00:12:04.707Z,23.16
2022-08-28T00:22:11.202Z,23.16
2022-08-28T00:32:17.511Z,23.16
2022-08-28T00:42:23.708Z,23.15
2022-08-28T00:52:29.964Z,23.15
2022-08-28T01:02:36.072Z,23.14
2022-08-28T01:12:42.570Z,23.14
2022-08-28T01:22:48.704Z,23.12
2022-08-28T01:32:55.014Z,23.14
2022-08-28T01:43:01.390Z,23.14
2022-08-28T01:53:07.714Z,23.12
2022-08-28T02:03:19.101Z,23.12
2022-08-28T02:13:25.726Z,23.12
2022-08-28T02:23:32.334Z,23.12
2022-08-28T02:33:38.731Z,23.12
2022-08-28T02:43:45.237Z,23.12
2022-08-28T02:53:51.714Z,23.11
2022-08-28T03:03:58.092Z,23.12
2022-08-28T03:14:03.989Z,23.12
2022-08-28T03:24:10.488Z,23.12
2022-08-28T03:34:21.501Z,23.12
2022-08-28T03:44:27.891Z,23.10
2022-08-28T03:54:34.198Z,23.12
2022-08-28T04:04:40.396Z,23.12
2022-08-28T04:14:46.364Z,23.08
2022-08-28T04:24:52.808Z,23.08
2022-08-28T04:34:59.195Z,23.05
2022-08-28T04:45:05.301Z,23.05
2022-08-28T04:55:11.488Z,23.09
2022-08-28T05:05:17.847Z,23.10
2022-08-28T05:15:25.128Z,23.08
2022-08-28T05:25:33.331Z,23.08
2022-08-28T05:35:39.647Z,23.10
2022-08-28T05:45:47.418Z,23.10
2022-08-28T05:55:53.856Z,23.12
2022-08-28T06:06:01.702Z,23.10
2022-08-28T06:16:08.194Z,23.09
2022-08-28T06:26:14.544Z,23.05
2022-08-28T06:36:20.786Z,23.05
2022-08-28T06:46:27.196Z,23.06
2022-08-28T06:56:33.545Z,23.06
2022-08-28T07:06:39.819Z,23.02
2022-08-28T07:16:46.310Z,23.04
2022-08-28T07:28:12.350Z,23.23
2022-08-28T07:38:22.264Z,23.29
2022-08-28T07:48:28.289Z,23.38
2022-08-28T07:58:34.623Z,23.45
2022-08-28T08:08:40.822Z,23.45
2022-08-28T08:18:47.054Z,23.66
2022-08-28T08:29:00.969Z,23.76
2022-08-28T08:39:09.655Z,23.90
2022-08-28T08:49:17.448Z,24.03
2022-08-28T08:59:23.995Z,24.16
2022-08-28T09:09:30.462Z,24.25
2022-08-28T09:19:36.702Z,24.32
2022-08-28T09:29:43.020Z,24.45
2022-08-28T09:39:49.600Z,24.63
2022-08-28T09:49:57.428Z,24.75
2022-08-28T10:00:03.877Z,24.95
2022-08-28T10:10:10.254Z,25.05
2022-08-28T10:20:16.835Z,25.23
2022-08-28T10:30:23.561Z,25.55
2022-08-28T10:40:29.865Z,25.75
2022-08-28T10:50:36.365Z,26.00
2022-08-28T11:00:42.503Z,26.36
2022-08-28T11:10:48.838Z,26.55
2022-08-28T11:20:55.065Z,26.59
2022-08-28T11:31:01.774Z,26.88
2022-08-28T11:41:08.734Z,27.38
2022-08-28T11:51:14.985Z,27.40
2022-08-28T12:01:21.214Z,27.77
2022-08-28T12:11:27.967Z,28.30
2022-08-28T12:21:35.652Z,28.70
2022-08-28T12:31:41.685Z,28.94
2022-08-28T12:41:50.044Z,29.10
2022-08-28T12:51:56.437Z,29.21
2022-08-28T13:02:03.678Z,29.30
2022-08-28T13:12:10.003Z,29.38
2022-08-28T13:22:18.341Z,29.38
2022-08-28T13:32:24.888Z,29.26
2022-08-28T13:42:32.937Z,29.32
2022-08-28T13:52:38.711Z,29.10
2022-08-28T14:02:48.733Z,29.13
2022-08-28T14:12:55.151Z,28.98
2022-08-28T14:23:02.279Z,28.76
2022-08-28T14:33:08.140Z,28.56
2022-08-28T14:43:16.128Z,28.08
2022-08-28T14:53:21.931Z,27.71
2022-08-28T15:03:27.602Z,27.42
2022-08-28T15:13:33.552Z,27.20
2022-08-28T15:23:39.478Z,26.95
2022-08-28T15:33:49.209Z,26.76
2022-08-28T15:43:55.246Z,26.66
2022-08-28T15:54:01.341Z,26.56
2022-08-28T16:04:07.452Z,26.46
2022-08-28T16:14:16.804Z,26.38
2022-08-28T16:24:24.670Z,26.26
2022-08-28T16:34:31.623Z,26.09
2022-08-28T16:44:37.654Z,25.95
2022-08-28T16:54:47.507Z,25.84
2022-08-28T17:04:55.030Z,25.73
2022-08-28T17:15:01.580Z,25.62
2022-08-28T17:25:07.586Z,25.52
2022-08-28T17:35:13.952Z,25.41
2022-08-28T17:45:20.130Z,25.34
2022-08-28T17:55:26.305Z,25.25
2022-08-28T18:05:32.762Z,25.20
2022-08-28T18:15:39.083Z,25.11
2022-08-28T18:25:50.567Z,25.01
2022-08-28T18:35:56.988Z,24.92
2022-08-28T18:46:03.460Z,24.82
2022-08-28T18:56:10.113Z,24.80
2022-08-28T19:06:18.743Z,24.72
2022-08-28T19:16:24.788Z,24.67
2022-08-28T19:26:31.041Z,24.62
2022-08-28T19:36:37.942Z,24.52
2022-08-28T19:46:43.655Z,24.45
2022-08-28T19:56:51.006Z,24.31
2022-08-28T20:06:57.004Z,24.16
2022-08-28T20:17:04.574Z,24.01
2022-08-28T20:27:10.361Z,23.90
2022-08-28T20:37:17.363Z,23.77
2022-08-28T20:47:23.494Z,23.67
2022-08-28T20:57:30.509Z,23.57
2022-08-28T21:07:36.257Z,23.45
2022-08-28T21:17:43.318Z,23.35
2022-08-28T21:27:49.022Z,23.24
2022-08-28T21:37:56.198Z,23.15
2022-08-28T21:48:01.900Z,23.06
2022-08-28T21:58:09.118Z,22.98
2022-08-28T22:08:16.782Z,22.90
2022-08-28T22:18:34.205Z,22.81
2022-08-28T22:28:34.912Z,22.81
2022-08-28T22:38:41.875Z,22.66
2022-08-28T22:48:52.793Z,22.62
2022-08-28T22:58:59.755Z,22.55
2022-08-28T23:09:05.546Z,22.51
2022-08-28T23:19:13.373Z,22.51
2022-08-28T23:29:20.007Z,22.39
2022-08-28T23:39:27.815Z,22.39
2022-08-28T23:49:33.782Z,22.27
2022-08-28T23:59:41.216Z,22.21
